Time;durP1;ratioP1;P1;durP2;ratioP2;P2;SDS_P1;SDS_P2;PMS_P1;PMS_P2;Temp;Humidity;BMP_temperature;BMP_pressure;BME280_temperature;BME280_humidity;BME280_pressure;Samples;Min_cycle;Max_cycle;Signal;HPM_P1;HPM_P2
2022/04/12 00:00:27;;;;;;;8.60;2.80;;;10.50;99.90;;;;;;5053481;28;20055;-88
2022/04/12 00:02:53;;;;;;;3.40;2.08;;;10.50;99.90;;;;;;5035569;28;20060;-88
2022/04/12 00:05:18;;;;;;;5.53;2.20;;;10.50;99.90;;;;;;5053542;28;20502;-88
2022/04/12 00:07:44;;;;;;;5.22;2.20;;;10.50;99.90;;;;;;5035762;28;20029;-88
2022/04/12 00:10:14;;;;;;;4.38;2.15;;;10.50;99.90;;;;;;5035654;28;20047;-88
2022/04/12 00:12:40;;;;;;;2.47;1.90;;;10.50;99.90;;;;;;5035542;28;20033;-88
2022/04/12 00:15:08;;;;;;;6.32;2.33;;;10.50;99.90;;;;;;5053377;28;20487;-88
2022/04/12 00:20:20;;;;;;;5.90;2.28;;;10.50;99.90;;;;;;5053661;28;20063;-88
2022/04/12 00:22:46;;;;;;;3.92;1.70;;;10.40;99.90;;;;;;5035403;28;20083;-88
2022/04/12 00:25:12;;;;;;;4.25;1.80;;;10.40;99.90;;;;;;5035405;28;20023;-88
2022/04/12 00:27:40;;;;;;;3.40;2.08;;;10.40;99.90;;;;;;5053362;28;20024;-88
2022/04/12 00:30:07;;;;;;;4.72;1.92;;;10.40;99.90;;;;;;5035562;28;20017;-89
2022/04/12 00:32:33;;;;;;;3.15;1.83;;;10.40;99.90;;;;;;5053410;28;20442;-88
2022/04/12 00:34:59;;;;;;;3.53;2.20;;;10.40;99.90;;;;;;5035491;28;20126;-88
2022/04/12 00:37:26;;;;;;;5.47;2.08;;;10.40;99.90;;;;;;5035389;28;20052;-88
2022/04/12 00:39:52;;;;;;;5.07;2.17;;;10.40;99.90;;;;;;5035221;28;20033;-88
2022/04/12 00:42:18;;;;;;;4.95;2.10;;;10.40;99.90;;;;;;5035293;28;20036;-88
2022/04/12 00:44:44;;;;;;;5.55;2.20;;;10.40;99.90;;;;;;5035343;28;20021;-88
2022/04/12 00:47:10;;;;;;;3.53;2.20;;;10.40;99.90;;;;;;5035253;28;20017;-88
2022/04/12 00:49:35;;;;;;;3.28;2.25;;;10.40;99.90;;;;;;5035291;28;20029;-88
2022/04/12 00:52:02;;;;;;;3.70;2.00;;;10.40;99.90;;;;;;5052970;28;20068;-88
2022/04/12 00:54:28;;;;;;;4.25;2.13;;;10.40;99.90;;;;;;5035923;28;20025;-88
2022/04/12 00:56:54;;;;;;;6.22;1.88;;;10.40;99.90;;;;;;5039186;28;20032;-88
2022/04/12 00:59:20;;;;;;;7.43;2.22;;;10.40;99.90;;;;;;5039160;28;20495;-88
2022/04/12 01:01:46;;;;;;;3.83;2.15;;;10.30;99.90;;;;;;5038921;28;20032;-88
2022/04/12 01:04:12;;;;;;;4.05;1.98;;;10.30;99.90;;;;;;5038935;28;20021;-88
2022/04/12 01:06:38;;;;;;;5.18;2.28;;;10.30;99.90;;;;;;5039158;28;20125;-88
2022/04/12 01:09:05;;;;;;;3.65;2.00;;;10.30;99.90;;;;;;5038971;28;20036;-88
2022/04/12 01:11:40;;;;;;;4.05;2.13;;;10.30;99.90;;;;;;5038881;28;20025;-88
2022/04/12 01:14:07;;;;;;;4.57;1.90;;;10.30;99.90;;;;;;5039044;28;20044;-88
2022/04/12 01:16:33;;;;;;;5.05;2.00;;;10.30;99.90;;;;;;5056618;28;20025;-88
2022/04/12 01:18:59;;;;;;;4.10;1.90;;;10.30;99.90;;;;;;5038811;28;20052;-88
2022/04/12 01:21:35;;;;;;;3.00;1.83;;;10.30;99.90;;;;;;5056484;28;20045;-88
2022/04/12 01:24:05;;;;;;;3.65;1.83;;;10.20;99.90;;;;;;5038742;28;20032;-88
2022/04/12 01:26:32;;;;;;;3.40;1.85;;;10.30;99.90;;;;;;5038562;28;20481;-88
2022/04/12 01:28:58;;;;;;;3.55;2.00;;;10.20;99.90;;;;;;5038706;28;20456;-88
2022/04/12 01:31:27;;;;;;;2.75;1.77;;;10.20;99.90;;;;;;5056465;28;20029;-88
2022/04/12 01:33:53;;;;;;;3.97;2.05;;;10.30;99.90;;;;;;5038563;28;20550;-88
2022/04/12 01:36:20;;;;;;;5.90;2.22;;;10.20;99.90;;;;;;5038514;28;20041;-88
2022/04/12 01:38:46;;;;;;;4.18;2.00;;;10.20;99.90;;;;;;5038342;28;20021;-88
2022/04/12 01:41:11;;;;;;;3.45;1.90;;;10.20;99.90;;;;;;5038636;28;20155;-88
2022/04/12 01:43:37;;;;;;;3.08;1.77;;;10.20;99.90;;;;;;5056181;28;20115;-87
2022/04/12 01:46:03;;;;;;;3.55;1.92;;;10.20;99.90;;;;;;5038035;28;20036;-88
2022/04/12 01:48:29;;;;;;;3.58;2.20;;;10.20;99.90;;;;;;5038304;28;20028;-88
2022/04/12 01:50:54;;;;;;;3.83;1.90;;;10.20;99.90;;;;;;5038124;28;20025;-88
2022/04/12 01:53:20;;;;;;;3.65;1.92;;;10.20;99.90;;;;;;5055897;28;20033;-88
2022/04/12 01:55:46;;;;;;;3.10;1.88;;;10.20;99.90;;;;;;5038585;28;20468;-88
2022/04/12 01:58:11;;;;;;;3.20;2.05;;;10.20;99.90;;;;;;5056335;28;20029;-87
2022/04/12 02:00:37;;;;;;;2.92;1.90;;;10.20;99.90;;;;;;5055878;28;20025;-88
2022/04/12 02:03:03;;;;;;;5.90;2.10;;;10.10;99.90;;;;;;5037804;28;20025;-88
2022/04/12 02:05:29;;;;;;;3.35;1.70;;;10.10;99.90;;;;;;5037845;28;20113;-89
2022/04/12 02:07:55;;;;;;;3.55;2.30;;;10.10;99.90;;;;;;5055171;28;20060;-88
2022/04/12 02:10:22;;;;;;;4.57;1.98;;;10.10;99.90;;;;;;5038077;28;20060;-88
2022/04/12 02:12:49;;;;;;;3.13;1.90;;;10.10;99.90;;;;;;5056163;28;20036;-88
2022/04/12 02:15:15;;;;;;;3.63;2.10;;;10.10;99.90;;;;;;5037823;28;20067;-88
2022/04/12 02:17:41;;;;;;;3.55;2.10;;;10.10;99.90;;;;;;5038300;28;20476;-88
2022/04/12 02:20:08;;;;;;;5.18;2.35;;;10.10;99.90;;;;;;5037441;28;20043;-88
2022/04/12 02:22:34;;;;;;;4.45;2.20;;;10.10;99.90;;;;;;5037604;28;20558;-88
2022/04/12 02:25:00;;;;;;;3.25;2.15;;;10.10;99.90;;;;;;5037676;28;20035;-88
2022/04/12 02:27:26;;;;;;;3.65;2.25;;;10.00;99.90;;;;;;5037617;28;20445;-88
2022/04/12 02:29:51;;;;;;;3.95;2.42;;;10.10;99.90;;;;;;5055492;28;20032;-88
2022/04/12 02:32:17;;;;;;;2.05;1.52;;;10.00;99.90;;;;;;5037614;28;20046;-88
2022/04/12 02:34:43;;;;;;;3.58;2.08;;;10.00;99.90;;;;;;5037401;28;20041;-88
2022/04/12 02:37:09;;;;;;;4.43;2.15;;;10.00;99.90;;;;;;5037911;28;20025;-88
2022/04/12 02:39:34;;;;;;;3.17;1.80;;;10.00;99.90;;;;;;5055265;28;20033;-88
2022/04/12 02:42:00;;;;;;;4.70;2.22;;;10.00;99.90;;;;;;5037218;28;20025;-88
2022/04/12 02:44:26;;;;;;;3.03;1.80;;;10.00;99.90;;;;;;5037346;28;20028;-88
2022/04/12 02:46:51;;;;;;;6.78;1.95;;;10.00;99.90;;;;;;5055131;28;20021;-88
2022/04/12 02:49:17;;;;;;;2.88;1.60;;;10.00;99.90;;;;;;5037192;28;20380;-87
2022/04/12 02:51:45;;;;;;;3.33;1.90;;;10.00;99.90;;;;;;5036969;28;20029;-88
2022/04/12 02:54:11;;;;;;;3.90;2.15;;;10.00;99.90;;;;;;5055059;28;20492;-88
2022/04/12 02:56:37;;;;;;;4.75;1.85;;;10.00;99.90;;;;;;5037107;28;20051;-87
2022/04/12 02:59:03;;;;;;;4.75;1.90;;;9.90;99.90;;;;;;5054868;28;20021;-88
2022/04/12 03:01:29;;;;;;;4.10;1.92;;;9.90;99.90;;;;;;5036910;28;20017;-88
2022/04/12 03:03:54;;;;;;;5.20;2.20;;;9.90;99.90;;;;;;5054850;28;20043;-88
2022/04/12 03:06:20;;;;;;;4.03;2.42;;;9.90;99.90;;;;;;5036805;28;20032;-88
2022/04/12 03:08:46;;;;;;;3.00;1.80;;;9.90;99.90;;;;;;5036840;28;20112;-88
2022/04/12 03:11:11;;;;;;;4.05;2.03;;;9.90;99.90;;;;;;5054678;28;20468;-88
2022/04/12 03:13:37;;;;;;;3.17;1.90;;;9.90;99.90;;;;;;5037023;28;20029;-88
2022/04/12 03:16:03;;;;;;;4.97;1.65;;;9.90;99.90;;;;;;5036755;28;20039;-88
2022/04/12 03:18:29;;;;;;;2.72;1.95;;;9.90;99.90;;;;;;5036716;28;20036;-88
2022/04/12 03:20:54;;;;;;;3.63;1.83;;;9.90;99.90;;;;;;5036463;28;20053;-88
2022/04/12 03:23:20;;;;;;;2.40;1.80;;;9.80;99.90;;;;;;5054428;28;20028;-88
2022/04/12 03:25:46;;;;;;;4.05;2.10;;;9.80;99.90;;;;;;5036456;28;20428;-89
2022/04/12 03:28:12;;;;;;;7.13;3.80;;;9.80;99.90;;;;;;5036580;28;20028;-88
2022/04/12 03:30:37;;;;;;;5.18;2.97;;;9.80;99.90;;;;;;5036481;28;20021;-88
2022/04/12 03:33:03;;;;;;;5.18;2.20;;;9.80;99.90;;;;;;5036420;28;20021;-88
2022/04/12 03:35:29;;;;;;;5.15;2.28;;;9.80;99.90;;;;;;5036407;28;20083;-88
2022/04/12 03:38:00;;;;;;;6.13;2.80;;;9.80;99.90;;;;;;5036443;28;20438;-88
2022/04/12 03:40:27;;;;;;;3.67;2.05;;;9.80;99.90;;;;;;5036372;28;20025;-88
2022/04/12 03:42:53;;;;;;;4.95;2.15;;;9.80;99.90;;;;;;5036277;28;20028;-88
2022/04/12 03:45:19;;;;;;;3.75;2.08;;;9.80;99.90;;;;;;5035998;28;20029;-88
2022/04/12 03:47:45;;;;;;;4.88;2.22;;;9.80;99.90;;;;;;5036366;28;20025;-88
2022/04/12 03:50:10;;;;;;;4.35;2.40;;;9.80;99.90;;;;;;5036252;28;20383;-89
2022/04/12 03:52:36;;;;;;;2.97;1.98;;;9.70;99.90;;;;;;5036039;28;20442;-88
2022/04/12 03:55:04;;;;;;;5.57;2.28;;;9.80;99.90;;;;;;5036262;28;20053;-88
2022/04/12 03:57:31;;;;;;;3.22;2.05;;;9.80;99.90;;;;;;5053768;28;20116;-88
2022/04/12 03:59:57;;;;;;;5.47;1.90;;;9.70;99.90;;;;;;5035938;28;20021;-88
2022/04/12 04:02:22;;;;;;;5.15;1.92;;;9.70;99.90;;;;;;5053662;28;20503;-89
2022/04/12 04:04:48;;;;;;;4.28;2.20;;;9.80;99.90;;;;;;5036042;28;20028;-88
2022/04/12 04:07:14;;;;;;;3.83;2.20;;;9.70;99.90;;;;;;5035809;28;20541;-88
2022/04/12 04:09:39;;;;;;;3.38;1.80;;;9.70;99.90;;;;;;5053683;28;20048;-88
2022/04/12 04:12:06;;;;;;;3.85;2.35;;;9.70;99.90;;;;;;5035704;28;20024;-88
2022/04/12 04:14:33;;;;;;;5.22;2.40;;;9.70;99.90;;;;;;5035518;28;20025;-88
2022/04/12 04:17:01;;;;;;;3.20;1.80;;;9.70;99.90;;;;;;5036161;28;20391;-88
2022/04/12 04:19:27;;;;;;;4.28;1.80;;;9.70;99.90;;;;;;5053398;28;20024;-88
2022/04/12 04:21:52;;;;;;;3.35;1.98;;;9.70;99.90;;;;;;5035340;28;20044;-88
2022/04/12 04:24:18;;;;;;;3.63;1.73;;;9.70;99.90;;;;;;5035691;28;20457;-88
2022/04/12 04:26:44;;;;;;;4.18;2.00;;;9.60;99.90;;;;;;5035821;28;20399;-88
2022/04/12 04:29:10;;;;;;;4.38;1.80;;;9.60;99.90;;;;;;5034966;28;20032;-88
2022/04/12 04:31:36;;;;;;;4.22;2.15;;;9.70;99.90;;;;;;5035362;28;20025;-88
2022/04/12 04:34:01;;;;;;;4.75;2.03;;;9.60;99.90;;;;;;5035427;28;20396;-88
2022/04/12 04:36:27;;;;;;;4.05;2.20;;;9.70;99.90;;;;;;5036262;28;20166;-88
2022/04/12 04:38:53;;;;;;;4.47;2.10;;;9.60;99.90;;;;;;5035326;28;20115;-88
2022/04/12 04:41:18;;;;;;;4.13;1.92;;;9.60;99.90;;;;;;5035494;28;20427;-88
2022/04/12 04:43:46;;;;;;;3.53;2.03;;;9.60;99.90;;;;;;5035144;28;20028;-88
2022/04/12 04:46:13;;;;;;;3.25;2.05;;;9.60;99.90;;;;;;5035231;28;20017;-88
2022/04/12 04:48:39;;;;;;;3.47;1.65;;;9.60;99.90;;;;;;5035240;28;20492;-88
2022/04/12 04:51:04;;;;;;;3.42;2.03;;;9.60;99.90;;;;;;5035301;28;20029;-88
2022/04/12 04:53:30;;;;;;;4.18;1.80;;;9.60;99.90;;;;;;5035217;28;20025;-88
2022/04/12 04:55:56;;;;;;;3.60;1.90;;;9.60;99.90;;;;;;5035896;28;20354;-88
2022/04/12 04:58:21;;;;;;;3.90;2.22;;;9.60;99.90;;;;;;5035267;28;20437;-88
2022/04/12 05:00:47;;;;;;;3.88;1.95;;;9.60;99.90;;;;;;5034966;28;20086;-88
2022/04/12 05:03:13;;;;;;;3.90;2.17;;;9.60;99.90;;;;;;5035149;28;20400;-88
2022/04/12 05:05:38;;;;;;;1.98;1.40;;;9.60;99.90;;;;;;5035684;28;20447;-88
2022/04/12 05:08:04;;;;;;;3.28;1.85;;;9.60;99.90;;;;;;5035209;28;20029;-88
2022/04/12 05:10:34;;;;;;;4.22;2.22;;;9.60;99.90;;;;;;5035639;28;20025;-87
2022/04/12 05:13:01;;;;;;;3.63;2.00;;;9.60;99.90;;;;;;5053058;28;20036;-88
2022/04/12 05:15:29;;;;;;;2.75;1.90;;;9.60;99.90;;;;;;5034895;28;20025;-88
2022/04/12 05:17:55;;;;;;;3.92;2.00;;;9.60;99.90;;;;;;5034962;28;20472;-87
2022/04/12 05:20:24;;;;;;;2.95;1.70;;;9.50;99.90;;;;;;5034840;28;20029;-87
2022/04/12 05:22:50;;;;;;;2.42;1.77;;;9.50;99.90;;;;;;5034821;28;20025;-88
2022/04/12 05:25:15;;;;;;;2.75;1.90;;;9.60;99.90;;;;;;5052941;28;20048;-88
2022/04/12 05:27:43;;;;;;;4.75;2.30;;;9.60;99.90;;;;;;5052747;28;20469;-87
2022/04/12 05:30:10;;;;;;;2.42;1.70;;;9.60;99.90;;;;;;5035141;28;20519;-88
2022/04/12 05:32:37;;;;;;;4.78;1.75;;;9.60;99.90;;;;;;5035397;28;20028;-87
2022/04/12 05:35:06;;;;;;;3.85;1.90;;;9.60;99.90;;;;;;5034884;28;20029;-87
2022/04/12 05:37:39;;;;;;;3.58;1.73;;;9.50;99.90;;;;;;5034751;28;20037;-88
2022/04/12 05:40:05;;;;;;;4.03;2.22;;;9.60;99.90;;;;;;5034925;28;20064;-87
2022/04/12 05:42:31;;;;;;;8.73;2.03;;;9.60;99.90;;;;;;5036916;28;20137;-88
2022/04/12 05:44:57;;;;;;;4.15;1.60;;;9.60;99.90;;;;;;5038368;28;20057;-88
2022/04/12 05:47:22;;;;;;;2.70;1.88;;;9.60;99.90;;;;;;5056308;28;20408;-88
2022/04/12 05:49:48;;;;;;;3.08;1.77;;;9.60;99.90;;;;;;5038633;28;20415;-87
2022/04/12 05:52:13;;;;;;;3.08;1.77;;;9.60;99.90;;;;;;5038411;28;20538;-88
2022/04/12 05:54:39;;;;;;;3.20;2.03;;;9.60;99.90;;;;;;5038107;28;20067;-88
2022/04/12 05:57:05;;;;;;;4.18;2.20;;;9.60;99.90;;;;;;5055898;28;20025;-88
2022/04/12 05:59:31;;;;;;;4.65;1.67;;;9.60;99.90;;;;;;5038066;28;20119;-88
2022/04/12 06:01:56;;;;;;;4.10;1.98;;;9.60;99.90;;;;;;5037854;28;20025;-88
2022/04/12 06:04:22;;;;;;;6.70;2.00;;;9.60;99.90;;;;;;5037949;28;20044;-88
2022/04/12 06:06:47;;;;;;;2.40;1.60;;;9.60;99.90;;;;;;5037834;28;20044;-88
2022/04/12 06:09:13;;;;;;;4.80;2.00;;;9.60;99.90;;;;;;5037777;28;20469;-87
2022/04/12 06:11:39;;;;;;;3.72;1.90;;;9.60;99.90;;;;;;5037819;28;20027;-88
2022/04/12 06:14:04;;;;;;;4.78;2.05;;;9.60;99.90;;;;;;5055818;28;20103;-88
2022/04/12 06:16:30;;;;;;;3.05;1.90;;;9.60;99.90;;;;;;5037829;28;20124;-88
2022/04/12 06:18:56;;;;;;;3.22;2.08;;;9.70;99.90;;;;;;5037722;28;20027;-87
2022/04/12 06:21:22;;;;;;;3.08;2.03;;;9.70;99.90;;;;;;5037575;28;20052;-88
2022/04/12 06:23:48;;;;;;;3.60;1.92;;;9.70;99.90;;;;;;5055347;28;20100;-87
2022/04/12 06:26:13;;;;;;;3.15;1.80;;;9.70;99.90;;;;;;5037557;28;20099;-88
2022/04/12 06:28:39;;;;;;;3.92;2.00;;;9.70;99.90;;;;;;5037454;28;20450;-87
2022/04/12 06:31:05;;;;;;;2.45;1.67;;;9.70;99.90;;;;;;5037459;28;20476;-88
2022/04/12 06:33:31;;;;;;;3.28;1.98;;;9.70;99.90;;;;;;5037383;28;20106;-88
2022/04/12 06:35:57;;;;;;;2.42;1.80;;;9.70;99.90;;;;;;5037353;28;20029;-88
2022/04/12 06:38:22;;;;;;;3.08;1.70;;;9.70;99.90;;;;;;5037886;28;20032;-88
2022/04/12 06:40:51;;;;;;;2.33;1.70;;;9.80;99.90;;;;;;5037238;28;20028;-88
2022/04/12 06:43:17;;;;;;;3.53;1.65;;;9.80;99.90;;;;;;5037058;28;20025;-88
2022/04/12 06:45:43;;;;;;;3.10;1.75;;;9.80;99.90;;;;;;5055008;28;20040;-88
2022/04/12 06:48:08;;;;;;;3.45;2.05;;;9.90;99.90;;;;;;5055158;28;20025;-88
2022/04/12 06:50:35;;;;;;;3.15;1.67;;;9.90;99.90;;;;;;5037056;28;20029;-87
2022/04/12 06:53:03;;;;;;;5.00;1.88;;;9.90;99.90;;;;;;5036605;28;20110;-88
2022/04/12 06:55:29;;;;;;;2.22;1.67;;;9.90;99.90;;;;;;5036948;28;20025;-88
2022/04/12 06:57:55;;;;;;;4.10;2.08;;;10.00;99.90;;;;;;5054776;28;20111;-88
2022/04/12 07:00:21;;;;;;;4.43;1.92;;;10.00;99.90;;;;;;5036887;28;20461;-87
2022/04/12 07:02:47;;;;;;;3.70;1.63;;;10.00;99.90;;;;;;5036805;28;20060;-88
2022/04/12 07:05:13;;;;;;;3.33;1.70;;;10.00;99.90;;;;;;5054520;28;20388;-88
2022/04/12 07:07:40;;;;;;;2.53;1.60;;;10.10;99.90;;;;;;5036676;28;20025;-86
2022/04/12 07:10:08;;;;;;;2.45;1.70;;;10.10;99.90;;;;;;5036589;28;20025;-86
2022/04/12 07:12:35;;;;;;;4.25;2.00;;;10.20;99.90;;;;;;5054554;28;20029;-88
2022/04/12 07:15:00;;;;;;;2.72;1.88;;;10.20;99.90;;;;;;5036631;28;20025;-88
2022/04/12 07:17:26;;;;;;;5.47;1.98;;;10.20;99.90;;;;;;5054792;28;20029;-88
2022/04/12 07:19:52;;;;;;;3.60;1.95;;;10.30;99.90;;;;;;5036526;28;20021;-88
2022/04/12 07:22:17;;;;;;;4.78;1.98;;;10.30;99.90;;;;;;5036463;28;20045;-88
2022/04/12 07:24:43;;;;;;;3.65;1.85;;;10.30;99.90;;;;;;5036449;28;20032;-88
2022/04/12 07:27:09;;;;;;;3.00;1.83;;;10.40;99.90;;;;;;5036450;28;20021;-88
2022/04/12 07:29:35;;;;;;;3.63;1.85;;;10.40;99.90;;;;;;5036993;28;20032;-88
2022/04/12 07:32:01;;;;;;;2.67;1.60;;;10.40;99.90;;;;;;5036379;28;20032;-88
2022/04/12 07:34:26;;;;;;;6.00;2.20;;;10.50;99.90;;;;;;5036186;28;20032;-88
2022/04/12 07:36:55;;;;;;;3.22;1.90;;;10.50;99.90;;;;;;5036304;28;20017;-88
2022/04/12 07:39:22;;;;;;;2.45;1.73;;;10.50;99.90;;;;;;5036200;28;20028;-88
2022/04/12 07:41:48;;;;;;;3.97;1.95;;;10.60;99.90;;;;;;5036189;28;20033;-88
2022/04/12 07:44:15;;;;;;;2.85;1.80;;;10.60;99.90;;;;;;5036260;28;20478;-88
2022/04/12 07:46:41;;;;;;;4.65;1.73;;;10.60;99.90;;;;;;5035934;28;20025;-88
2022/04/12 07:49:07;;;;;;;5.20;2.00;;;10.70;99.90;;;;;;5035917;28;20083;-87
2022/04/12 07:51:33;;;;;;;3.97;2.38;;;10.70;99.90;;;;;;5036232;28;20365;-88
2022/04/12 07:54:00;;;;;;;2.97;1.85;;;10.70;99.90;;;;;;5036146;28;20044;-87
2022/04/12 07:56:29;;;;;;;4.07;2.10;;;10.80;99.90;;;;;;5036313;28;20056;-87
2022/04/12 07:58:55;;;;;;;2.97;1.83;;;10.80;99.90;;;;;;5053993;28;20040;-89
2022/04/12 08:01:21;;;;;;;4.03;2.08;;;10.80;99.90;;;;;;5035946;28;20028;-87
2022/04/12 08:03:47;;;;;;;3.78;1.95;;;10.90;99.90;;;;;;5035672;28;20428;-88
2022/04/12 08:06:13;;;;;;;3.08;2.00;;;10.90;99.90;;;;;;5053936;28;20384;-88
2022/04/12 08:08:41;;;;;;;3.95;1.75;;;10.90;99.90;;;;;;5035744;28;20029;-88
2022/04/12 08:11:07;;;;;;;2.75;1.88;;;11.00;99.90;;;;;;5035830;28;20032;-88
2022/04/12 08:13:33;;;;;;;2.78;1.80;;;11.00;99.90;;;;;;5036900;28;20029;-88
2022/04/12 08:15:58;;;;;;;4.13;2.10;;;11.00;99.90;;;;;;5053979;28;20481;-88
2022/04/12 08:18:24;;;;;;;2.70;1.73;;;11.00;99.90;;;;;;5053595;28;20027;-88
2022/04/12 08:20:50;;;;;;;4.95;2.25;;;11.10;99.90;;;;;;5035666;28;20057;-88
2022/04/12 08:23:17;;;;;;;4.30;2.03;;;11.00;99.90;;;;;;5054098;28;20427;-88
2022/04/12 08:25:44;;;;;;;2.67;1.90;;;11.10;99.90;;;;;;5036530;28;20044;-88
2022/04/12 08:28:09;;;;;;;3.67;2.05;;;11.10;99.90;;;;;;5035822;28;20017;-89
2022/04/12 08:30:36;;;;;;;5.75;2.10;;;11.10;99.90;;;;;;5053836;28;20045;-88
2022/04/12 08:33:02;;;;;;;2.75;1.63;;;11.20;99.90;;;;;;5035900;28;20401;-88
2022/04/12 08:35:28;;;;;;;5.05;2.00;;;11.20;99.90;;;;;;5035532;28;20400;-88
2022/04/12 08:37:54;;;;;;;3.78;1.98;;;11.20;99.90;;;;;;5053598;28;20021;-89
2022/04/12 08:40:20;;;;;;;3.53;1.77;;;11.30;99.90;;;;;;5035780;28;20534;-88
2022/04/12 08:42:46;;;;;;;3.42;1.80;;;11.30;99.90;;;;;;5035356;28;20029;-89
2022/04/12 08:45:12;;;;;;;2.80;1.90;;;11.30;99.90;;;;;;5036482;28;20032;-89
2022/04/12 08:47:39;;;;;;;2.55;1.88;;;11.30;99.90;;;;;;5053652;28;20101;-89
2022/04/12 08:50:07;;;;;;;4.05;1.85;;;11.40;99.90;;;;;;5053458;28;20032;-88
2022/04/12 08:52:35;;;;;;;2.47;1.73;;;11.40;99.90;;;;;;5053747;28;20036;-87
2022/04/12 08:55:01;;;;;;;4.00;2.00;;;11.40;99.90;;;;;;5035364;28;20025;-88
2022/04/12 08:57:28;;;;;;;5.82;2.00;;;11.40;99.90;;;;;;5035385;28;20033;-88
2022/04/12 08:59:53;;;;;;;2.47;1.88;;;11.40;99.90;;;;;;5035462;28;20029;-88
2022/04/12 09:02:19;;;;;;;2.40;1.75;;;11.40;99.90;;;;;;5035577;28;20396;-88
2022/04/12 09:04:45;;;;;;;2.35;1.70;;;11.40;99.90;;;;;;5035600;28;20025;-89
2022/04/12 09:07:11;;;;;;;4.00;1.75;;;11.40;99.90;;;;;;5053361;28;20039;-89
2022/04/12 09:09:39;;;;;;;2.35;1.60;;;11.40;99.90;;;;;;5053377;28;20465;-88
2022/04/12 09:12:06;;;;;;;5.70;1.98;;;11.50;99.90;;;;;;5053232;28;20546;-88
2022/04/12 09:14:48;;;;;;;3.28;1.70;;;11.50;99.90;;;;;;5035346;28;20365;-88
2022/04/12 09:17:38;;;;;;;2.90;1.80;;;11.60;99.90;;;;;;5039041;28;20024;-88
2022/04/12 09:20:10;;;;;;;2.88;1.90;;;11.70;99.90;;;;;;5056790;28;20064;-89
2022/04/12 09:22:37;;;;;;;6.97;1.65;;;11.80;99.90;;;;;;5038845;28;20599;-88
2022/04/12 09:25:05;;;;;;;2.10;1.52;;;11.80;99.90;;;;;;5039390;28;20033;-88
2022/04/12 09:27:34;;;;;;;5.25;1.63;;;11.80;99.90;;;;;;5039203;28;20032;-88
2022/04/12 09:30:01;;;;;;;2.80;1.40;;;11.90;99.90;;;;;;5039026;28;20021;-90
2022/04/12 09:32:28;;;;;;;4.28;1.55;;;11.90;99.90;;;;;;5057049;28;20053;-88
2022/04/12 09:34:56;;;;;;;3.97;1.60;;;12.00;99.90;;;;;;5038983;28;20438;-89
2022/04/12 09:37:27;;;;;;;4.43;1.40;;;12.00;99.90;;;;;;5038775;28;20476;-89
2022/04/12 09:39:58;;;;;;;2.67;1.20;;;12.10;99.90;;;;;;5038686;28;20025;-88
2022/04/12 09:42:48;;;;;;;2.72;1.70;;;12.10;99.90;;;;;;5038618;28;20035;-88
2022/04/12 09:45:24;;;;;;;1.85;1.10;;;12.10;99.90;;;;;;5038705;28;20020;-89
2022/04/12 09:47:51;;;;;;;2.15;1.30;;;12.20;99.90;;;;;;5038715;28;20506;-88
2022/04/12 09:50:22;;;;;;;2.38;1.40;;;12.20;99.90;;;;;;5038598;28;20032;-88
2022/04/12 09:52:58;;;;;;;2.05;1.48;;;12.20;99.90;;;;;;5056335;28;20025;-88
2022/04/12 09:55:43;;;;;;;2.40;1.25;;;12.20;99.90;;;;;;5038729;28;20119;-88
2022/04/12 09:58:14;;;;;;;5.57;1.50;;;12.20;99.90;;;;;;5056601;28;20484;-89
2022/04/12 10:00:47;;;;;;;2.60;1.30;;;12.20;99.90;;;;;;5038864;28;20492;-89
2022/04/12 10:03:15;;;;;;;3.42;1.63;;;12.20;99.90;;;;;;5038461;28;20025;-88
2022/04/12 10:05:42;;;;;;;4.03;1.80;;;12.20;99.90;;;;;;5038582;28;20021;-88
2022/04/12 10:08:14;;;;;;;4.78;1.65;;;12.20;99.90;;;;;;5038850;28;20021;-88
2022/04/12 10:10:44;;;;;;;2.67;1.65;;;12.20;99.90;;;;;;5056397;28;20025;-89
2022/04/12 10:13:12;;;;;;;2.67;1.60;;;12.20;99.90;;;;;;5038321;28;20373;-89
2022/04/12 10:15:38;;;;;;;2.42;1.65;;;12.20;99.90;;;;;;5037928;28;20034;-88
2022/04/12 10:18:04;;;;;;;3.67;1.55;;;12.20;99.90;;;;;;5038598;28;20473;-88
2022/04/12 10:20:31;;;;;;;3.40;1.42;;;12.20;99.90;;;;;;5055461;28;20051;-89
2022/04/12 10:22:58;;;;;;;4.10;1.52;;;12.30;99.90;;;;;;5038236;28;20399;-87
2022/04/12 10:25:26;;;;;;;2.72;1.63;;;12.30;99.90;;;;;;5055646;28;20031;-88
2022/04/12 10:27:55;;;;;;;3.60;1.30;;;12.30;99.90;;;;;;5036974;28;20018;-89
2022/04/12 10:30:27;;;;;;;3.40;1.63;;;12.30;99.90;;;;;;5037789;28;20120;-88
2022/04/12 10:33:08;;;;;;;3.90;1.30;;;12.30;99.90;;;;;;5038040;28;20025;-87
2022/04/12 10:35:46;;;;;;;2.88;1.35;;;12.50;99.90;;;;;;5037753;28;20032;-89
2022/04/12 10:38:14;;;;;;;2.75;1.55;;;12.50;99.90;;;;;;5037384;28;20100;-88
2022/04/12 10:40:45;;;;;;;2.05;1.30;;;12.50;99.90;;;;;;5037488;28;20090;-88
2022/04/12 10:43:11;;;;;;;3.10;1.40;;;12.60;99.90;;;;;;5037419;28;20112;-89
2022/04/12 10:45:48;;;;;;;3.67;1.30;;;12.60;99.90;;;;;;5037764;28;20021;-88
2022/04/12 10:48:25;;;;;;;4.45;1.50;;;12.60;99.90;;;;;;5037656;28;20051;-87
2022/04/12 10:50:53;;;;;;;2.28;1.10;;;12.60;99.90;;;;;;5055382;28;20370;-88
2022/04/12 10:53:40;;;;;;;2.40;1.38;;;12.70;99.90;;;;;;5037223;28;20025;-88
2022/04/12 10:56:10;;;;;;;3.50;1.58;;;12.70;99.90;;;;;;5037015;28;20108;-87
2022/04/12 10:58:36;;;;;;;2.70;1.38;;;12.80;99.90;;;;;;5037186;28;20025;-88
2022/04/12 11:01:04;;;;;;;4.10;1.27;;;12.80;99.90;;;;;;5037051;28;20052;-90
2022/04/12 11:03:42;;;;;;;2.40;1.42;;;12.80;99.90;;;;;;5054897;28;20028;-87
2022/04/12 11:06:20;;;;;;;4.68;1.30;;;12.80;99.90;;;;;;5037334;28;20124;-88
2022/04/12 11:08:49;;;;;;;3.75;1.45;;;12.90;99.90;;;;;;5037051;28;20027;-88
2022/04/12 11:11:19;;;;;;;2.10;1.13;;;12.90;99.90;;;;;;5037084;28;20111;-88
2022/04/12 11:13:45;;;;;;;4.13;1.48;;;12.90;99.90;;;;;;5036616;28;20052;-87
2022/04/12 11:16:12;;;;;;;2.40;1.38;;;12.90;99.90;;;;;;5036813;28;20492;-88
2022/04/12 11:18:59;;;;;;;2.28;1.30;;;12.90;99.90;;;;;;5036773;28;20476;-88
2022/04/12 11:21:28;;;;;;;2.13;1.20;;;12.90;99.90;;;;;;5054741;28;20466;-89
2022/04/12 11:24:06;;;;;;;2.67;1.10;;;12.90;99.90;;;;;;5037065;28;20032;-89
2022/04/12 11:26:44;;;;;;;6.55;1.38;;;12.90;99.90;;;;;;5036502;28;20124;-88
2022/04/12 11:29:11;;;;;;;3.22;1.20;;;12.90;99.90;;;;;;5036816;28;20059;-88
2022/04/12 11:31:56;;;;;;;4.40;1.42;;;12.90;99.90;;;;;;5036256;28;20025;-88
2022/04/12 11:34:27;;;;;;;3.08;1.27;;;12.80;99.90;;;;;;5036745;28;20082;-88
2022/04/12 11:36:57;;;;;;;3.92;1.08;;;12.80;99.90;;;;;;5036494;28;20025;-88
2022/04/12 11:39:44;;;;;;;3.47;1.10;;;12.80;99.90;;;;;;5053105;28;20096;-88
2022/04/12 11:42:15;;;;;;;3.70;1.30;;;12.80;99.90;;;;;;5036094;28;20029;-88
2022/04/12 11:44:54;;;;;;;2.78;1.20;;;12.80;99.90;;;;;;5036392;28;20106;-87
2022/04/12 11:47:20;;;;;;;4.63;1.40;;;12.80;99.90;;;;;;5036245;28;20036;-87
2022/04/12 11:49:46;;;;;;;2.85;1.20;;;12.80;99.90;;;;;;5036031;28;20365;-89
2022/04/12 11:52:14;;;;;;;1.77;1.02;;;12.80;99.90;;;;;;5054004;28;20043;-87
2022/04/12 11:54:41;;;;;;;3.28;1.15;;;12.80;99.90;;;;;;5053800;28;20100;-88
2022/04/12 11:57:13;;;;;;;3.45;1.30;;;12.80;99.90;;;;;;5035813;28;20033;-87
2022/04/12 11:59:49;;;;;;;5.72;1.38;;;12.80;99.90;;;;;;5035809;28;20025;-88
2022/04/12 12:02:17;;;;;;;2.90;1.20;;;12.80;99.90;;;;;;5035620;28;20028;-86
2022/04/12 12:04:50;;;;;;;4.13;1.27;;;12.80;99.90;;;;;;5035769;28;20021;-88
2022/04/12 12:07:17;;;;;;;1.42;0.98;;;12.80;99.90;;;;;;5053545;28;20036;-87
2022/04/12 12:09:59;;;;;;;4.30;1.08;;;12.80;99.90;;;;;;5053512;28;20115;-87
2022/04/12 12:12:39;;;;;;;2.03;1.00;;;12.80;99.90;;;;;;5035587;28;20037;-86
2022/04/12 12:15:23;;;;;;;2.63;1.10;;;12.80;99.90;;;;;;5035604;28;20121;-88
2022/04/12 12:17:59;;;;;;;3.72;1.20;;;12.80;99.90;;;;;;5053868;28;20025;-88
2022/04/12 12:20:27;;;;;;;3.70;1.27;;;12.80;99.90;;;;;;5035322;28;20029;-88
2022/04/12 12:22:56;;;;;;;2.20;1.00;;;12.70;99.90;;;;;;5053408;28;20495;-88
2022/04/12 12:25:47;;;;;;;3.78;0.90;;;12.70;99.90;;;;;;5035513;28;20476;-88
2022/04/12 12:28:21;;;;;;;3.05;1.20;;;12.70;99.90;;;;;;5035652;28;20365;-88
2022/04/12 12:30:48;;;;;;;3.05;1.10;;;12.80;99.90;;;;;;5035490;28;20116;-88
2022/04/12 12:33:14;;;;;;;2.08;1.20;;;12.80;99.90;;;;;;5035482;28;20087;-88
2022/04/12 12:35:46;;;;;;;5.25;1.00;;;12.80;99.90;;;;;;5035792;28;20029;-88
2022/04/12 12:38:14;;;;;;;1.30;0.82;;;12.80;99.90;;;;;;5053369;28;20029;-88
2022/04/12 12:40:41;;;;;;;3.53;1.10;;;12.80;99.90;;;;;;5035273;28;20021;-88
2022/04/12 12:43:10;;;;;;;2.22;1.13;;;12.80;99.90;;;;;;5035135;28;20081;-88
2022/04/12 12:45:39;;;;;;;3.65;1.00;;;12.80;99.90;;;;;;5035209;28;20025;-88
2022/04/12 12:48:09;;;;;;;3.33;0.80;;;12.90;99.90;;;;;;5035160;28;20115;-87
2022/04/12 12:50:38;;;;;;;2.10;1.05;;;12.90;99.90;;;;;;5037243;28;20025;-87
2022/04/12 12:53:05;;;;;;;2.90;1.08;;;13.00;99.90;;;;;;5040156;28;20025;-88
2022/04/12 12:55:49;;;;;;;3.38;1.10;;;13.00;99.90;;;;;;5039332;28;20021;-87